sensor_id;sensor_type;location;lat;lon;timestamp;temperature;humidity
40589;DHT22;26297;49.450;6.640;2023-06-22T00:00:21;22.50;99.90
40589;DHT22;26297;49.450;6.640;2023-06-22T00:03:48;22.50;99.90
40589;DHT22;26297;49.450;6.640;2023-06-22T00:07:10;22.50;99.90
40589;DHT22;26297;49.450;6.640;2023-06-22T00:10:18;22.50;99.90
40589;DHT22;26297;49.450;6.640;2023-06-22T00:14:10;22.50;99.90
40589;DHT22;26297;49.450;6.640;2023-06-22T00:17:47;22.50;99.90
40589;DHT22;26297;49.450;6.640;2023-06-22T00:21:22;22.50;99.90
40589;DHT22;26297;49.450;6.640;2023-06-22T00:29:20;22.50;99.90
40589;DHT22;26297;49.450;6.640;2023-06-22T00:43:45;22.50;99.90
40589;DHT22;26297;49.450;6.640;2023-06-22T00:51:07;22.50;99.90
40589;DHT22;26297;49.450;6.640;2023-06-22T00:58:22;22.50;99.90
40589;DHT22;26297;49.450;6.640;2023-06-22T01:02:28;22.50;99.90
40589;DHT22;26297;49.450;6.640;2023-06-22T01:09:15;22.50;99.90
40589;DHT22;26297;49.450;6.640;2023-06-22T01:13:00;22.50;99.90
40589;DHT22;26297;49.450;6.640;2023-06-22T01:32:35;22.40;99.90
40589;DHT22;26297;49.450;6.640;2023-06-22T01:35:57;22.50;99.90
40589;DHT22;26297;49.450;6.640;2023-06-22T01:39:12;22.50;99.90
40589;DHT22;26297;49.450;6.640;2023-06-22T01:42:28;22.50;99.90
40589;DHT22;26297;49.450;6.640;2023-06-22T01:45:40;22.50;99.90
40589;DHT22;26297;49.450;6.640;2023-06-22T01:48:57;22.50;99.90
40589;DHT22;26297;49.450;6.640;2023-06-22T02:04:07;22.40;99.90
40589;DHT22;26297;49.450;6.640;2023-06-22T02:07:49;22.40;99.90
40589;DHT22;26297;49.450;6.640;2023-06-22T02:19:35;22.50;99.90
40589;DHT22;26297;49.450;6.640;2023-06-22T02:23:06;22.40;99.90
40589;DHT22;26297;49.450;6.640;2023-06-22T02:26:17;22.40;99.90
40589;DHT22;26297;49.450;6.640;2023-06-22T02:30:12;22.40;99.90
40589;DHT22;26297;49.450;6.640;2023-06-22T02:33:35;22.40;99.90
40589;DHT22;26297;49.450;6.640;2023-06-22T02:37:05;22.40;99.90
40589;DHT22;26297;49.450;6.640;2023-06-22T02:40:21;22.40;99.90
40589;DHT22;26297;49.450;6.640;2023-06-22T02:51:54;22.40;99.90
40589;DHT22;26297;49.450;6.640;2023-06-22T02:55:10;22.40;99.90
40589;DHT22;26297;49.450;6.640;2023-06-22T02:59:10;22.40;99.90
40589;DHT22;26297;49.450;6.640;2023-06-22T03:02:45;22.40;99.90
40589;DHT22;26297;49.450;6.640;2023-06-22T03:06:18;22.40;99.90
40589;DHT22;26297;49.450;6.640;2023-06-22T03:09:48;22.40;99.90
40589;DHT22;26297;49.450;6.640;2023-06-22T03:20:11;22.40;99.90
40589;DHT22;26297;49.450;6.640;2023-06-22T03:23:29;22.40;99.90
40589;DHT22;26297;49.450;6.640;2023-06-22T03:26:51;22.40;99.90
40589;DHT22;26297;49.450;6.640;2023-06-22T03:34:40;22.30;99.90
40589;DHT22;26297;49.450;6.640;2023-06-22T03:37:54;22.40;99.90
40589;DHT22;26297;49.450;6.640;2023-06-22T03:41:20;22.30;99.90
40589;DHT22;26297;49.450;6.640;2023-06-22T03:45:03;22.40;99.90
40589;DHT22;26297;49.450;6.640;2023-06-22T03:48:17;22.30;99.90
40589;DHT22;26297;49.450;6.640;2023-06-22T03:51:34;22.30;99.90
40589;DHT22;26297;49.450;6.640;2023-06-22T03:54:39;22.30;99.90
40589;DHT22;26297;49.450;6.640;2023-06-22T04:01:36;22.30;99.90
40589;DHT22;26297;49.450;6.640;2023-06-22T04:04:51;22.30;99.90
40589;DHT22;26297;49.450;6.640;2023-06-22T04:08:54;22.30;99.90
40589;DHT22;26297;49.450;6.640;2023-06-22T04:12:18;22.30;99.90
40589;DHT22;26297;49.450;6.640;2023-06-22T04:15:42;22.30;99.90
40589;DHT22;26297;49.450;6.640;2023-06-22T04:18:55;22.30;99.90
40589;DHT22;26297;49.450;6.640;2023-06-22T04:31:15;22.30;99.90
40589;DHT22;26297;49.450;6.640;2023-06-22T04:35:00;22.20;99.90
40589;DHT22;26297;49.450;6.640;2023-06-22T04:38:51;22.30;99.90
40589;DHT22;26297;49.450;6.640;2023-06-22T04:42:12;22.20;99.90
40589;DHT22;26297;49.450;6.640;2023-06-22T04:49:36;22.20;99.90
40589;DHT22;26297;49.450;6.640;2023-06-22T04:53:01;22.30;99.90
40589;DHT22;26297;49.450;6.640;2023-06-22T04:56:20;22.30;99.90
40589;DHT22;26297;49.450;6.640;2023-06-22T05:03:28;22.30;99.90
40589;DHT22;26297;49.450;6.640;2023-06-22T05:07:11;22.30;99.90
40589;DHT22;26297;49.450;6.640;2023-06-22T05:14:19;22.30;99.90
40589;DHT22;26297;49.450;6.640;2023-06-22T05:17:38;22.30;99.90
40589;DHT22;26297;49.450;6.640;2023-06-22T05:20:54;22.30;99.90
40589;DHT22;26297;49.450;6.640;2023-06-22T05:24:35;22.30;99.90
40589;DHT22;26297;49.450;6.640;2023-06-22T05:31:39;22.20;99.90
40589;DHT22;26297;49.450;6.640;2023-06-22T05:35:14;22.30;99.90
40589;DHT22;26297;49.450;6.640;2023-06-22T05:38:59;22.30;99.90
40589;DHT22;26297;49.450;6.640;2023-06-22T05:42:45;22.30;99.90
40589;DHT22;26297;49.450;6.640;2023-06-22T05:46:40;22.30;99.90
40589;DHT22;26297;49.450;6.640;2023-06-22T05:49:57;22.30;99.90
40589;DHT22;26297;49.450;6.640;2023-06-22T05:53:53;22.30;99.90
40589;DHT22;26297;49.450;6.640;2023-06-22T05:57:04;22.30;99.90
40589;DHT22;26297;49.450;6.640;2023-06-22T06:00:07;22.40;99.90
40589;DHT22;26297;49.450;6.640;2023-06-22T06:07:20;22.40;99.90
40589;DHT22;26297;49.450;6.640;2023-06-22T06:10:50;22.40;99.90
40589;DHT22;26297;49.450;6.640;2023-06-22T06:28:35;22.40;99.90
40589;DHT22;26297;49.450;6.640;2023-06-22T06:31:48;22.40;99.90
40589;DHT22;26297;49.450;6.640;2023-06-22T06:35:30;22.40;99.90
40589;DHT22;26297;49.450;6.640;2023-06-22T06:42:34;22.40;99.90
40589;DHT22;26297;49.450;6.640;2023-06-22T06:45:42;22.40;99.90
40589;DHT22;26297;49.450;6.640;2023-06-22T06:49:01;22.40;99.90
40589;DHT22;26297;49.450;6.640;2023-06-22T06:52:13;22.40;99.90
40589;DHT22;26297;49.450;6.640;2023-06-22T06:55:30;22.40;99.90
40589;DHT22;26297;49.450;6.640;2023-06-22T07:17:16;22.50;99.90
40589;DHT22;26297;49.450;6.640;2023-06-22T07:20:45;22.50;99.90
40589;DHT22;26297;49.450;6.640;2023-06-22T07:28:08;22.50;99.90
40589;DHT22;26297;49.450;6.640;2023-06-22T07:35:00;22.50;99.90
40589;DHT22;26297;49.450;6.640;2023-06-22T07:41:48;22.50;99.90
40589;DHT22;26297;49.450;6.640;2023-06-22T08:02:13;22.50;99.90
40589;DHT22;26297;49.450;6.640;2023-06-22T08:13:57;22.60;99.90
40589;DHT22;26297;49.450;6.640;2023-06-22T08:25:47;22.50;99.90
40589;DHT22;26297;49.450;6.640;2023-06-22T08:29:39;22.60;99.90
40589;DHT22;26297;49.450;6.640;2023-06-22T08:33:12;22.60;99.90
40589;DHT22;26297;49.450;6.640;2023-06-22T08:40:08;22.50;99.90
40589;DHT22;26297;49.450;6.640;2023-06-22T08:43:30;22.60;99.90
40589;DHT22;26297;49.450;6.640;2023-06-22T08:46:44;22.60;99.90
40589;DHT22;26297;49.450;6.640;2023-06-22T08:50:07;22.60;99.90
40589;DHT22;26297;49.450;6.640;2023-06-22T08:53:39;22.60;99.90
40589;DHT22;26297;49.450;6.640;2023-06-22T08:57:03;22.60;99.90
40589;DHT22;26297;49.450;6.640;2023-06-22T09:00:14;22.60;99.90
40589;DHT22;26297;49.450;6.640;2023-06-22T09:04:04;22.60;99.90
40589;DHT22;26297;49.450;6.640;2023-06-22T09:07:21;22.60;99.90
40589;DHT22;26297;49.450;6.640;2023-06-22T09:10:26;22.60;99.90
40589;DHT22;26297;49.450;6.640;2023-06-22T09:13:32;22.60;99.90
40589;DHT22;26297;49.450;6.640;2023-06-22T09:16:58;22.60;99.90
40589;DHT22;26297;49.450;6.640;2023-06-22T09:20:17;22.60;99.90
40589;DHT22;26297;49.450;6.640;2023-06-22T09:23:33;22.60;99.90
40589;DHT22;26297;49.450;6.640;2023-06-22T09:27:01;22.60;99.90
40589;DHT22;26297;49.450;6.640;2023-06-22T09:30:29;22.50;99.90
40589;DHT22;26297;49.450;6.640;2023-06-22T09:34:01;22.50;99.90
40589;DHT22;26297;49.450;6.640;2023-06-22T09:37:12;22.50;99.90
40589;DHT22;26297;49.450;6.640;2023-06-22T09:40:22;22.50;99.90
40589;DHT22;26297;49.450;6.640;2023-06-22T09:43:37;22.50;99.90
40589;DHT22;26297;49.450;6.640;2023-06-22T09:46:47;22.60;99.90
40589;DHT22;26297;49.450;6.640;2023-06-22T09:53:18;22.60;99.90
40589;DHT22;26297;49.450;6.640;2023-06-22T09:56:29;22.60;99.90
40589;DHT22;26297;49.450;6.640;2023-06-22T09:59:47;22.60;99.90
40589;DHT22;26297;49.450;6.640;2023-06-22T10:03:11;22.60;99.90
40589;DHT22;26297;49.450;6.640;2023-06-22T10:06:38;22.60;99.90
40589;DHT22;26297;49.450;6.640;2023-06-22T10:09:59;22.60;99.90
40589;DHT22;26297;49.450;6.640;2023-06-22T10:13:36;22.70;99.90
40589;DHT22;26297;49.450;6.640;2023-06-22T10:17:00;22.70;99.90
40589;DHT22;26297;49.450;6.640;2023-06-22T10:20:13;22.70;99.90
40589;DHT22;26297;49.450;6.640;2023-06-22T10:23:52;22.70;99.90
40589;DHT22;26297;49.450;6.640;2023-06-22T10:30:37;22.70;99.90
40589;DHT22;26297;49.450;6.640;2023-06-22T10:34:20;22.70;99.90
40589;DHT22;26297;49.450;6.640;2023-06-22T10:37:42;22.70;99.90
40589;DHT22;26297;49.450;6.640;2023-06-22T10:41:10;22.70;99.90
40589;DHT22;26297;49.450;6.640;2023-06-22T10:44:36;22.60;99.90
40589;DHT22;26297;49.450;6.640;2023-06-22T10:47:59;22.60;99.90
40589;DHT22;26297;49.450;6.640;2023-06-22T10:51:52;22.60;99.90
40589;DHT22;26297;49.450;6.640;2023-06-22T10:55:09;22.60;99.90
40589;DHT22;26297;49.450;6.640;2023-06-22T10:58:35;22.60;99.90
40589;DHT22;26297;49.450;6.640;2023-06-22T11:02:09;22.70;99.90
40589;DHT22;26297;49.450;6.640;2023-06-22T11:05:43;22.70;99.90
40589;DHT22;26297;49.450;6.640;2023-06-22T11:13:12;22.60;99.90
40589;DHT22;26297;49.450;6.640;2023-06-22T11:16:32;22.60;99.90
40589;DHT22;26297;49.450;6.640;2023-06-22T11:20:04;22.60;99.90
40589;DHT22;26297;49.450;6.640;2023-06-22T11:23:19;22.60;99.90
40589;DHT22;26297;49.450;6.640;2023-06-22T11:26:35;22.60;99.90
40589;DHT22;26297;49.450;6.640;2023-06-22T11:41:13;22.70;99.90
40589;DHT22;26297;49.450;6.640;2023-06-22T13:51:26;22.70;99.90
40589;DHT22;26297;49.450;6.640;2023-06-22T13:55:21;22.70;99.90
40589;DHT22;26297;49.450;6.640;2023-06-22T13:58:45;22.60;99.90
40589;DHT22;26297;49.450;6.640;2023-06-22T14:05:47;22.70;99.90
40589;DHT22;26297;49.450;6.640;2023-06-22T14:09:05;22.70;99.90
40589;DHT22;26297;49.450;6.640;2023-06-22T14:12:23;22.70;99.90
40589;DHT22;26297;49.450;6.640;2023-06-22T14:15:41;22.70;99.90
40589;DHT22;26297;49.450;6.640;2023-06-22T14:19:08;22.70;99.90
40589;DHT22;26297;49.450;6.640;2023-06-22T14:23:09;22.80;99.90
40589;DHT22;26297;49.450;6.640;2023-06-22T14:26:48;22.70;99.90
40589;DHT22;26297;49.450;6.640;2023-06-22T14:30:09;22.80;99.90
40589;DHT22;26297;49.450;6.640;2023-06-22T14:33:38;22.80;99.90
40589;DHT22;26297;49.450;6.640;2023-06-22T14:36:56;22.80;99.90
40589;DHT22;26297;49.450;6.640;2023-06-22T14:40:11;22.80;99.90
40589;DHT22;26297;49.450;6.640;2023-06-22T14:47:08;22.90;99.90
40589;DHT22;26297;49.450;6.640;2023-06-22T14:50:18;22.80;99.90
40589;DHT22;26297;49.450;6.640;2023-06-22T14:53:44;22.80;99.90
40589;DHT22;26297;49.450;6.640;2023-06-22T14:56:54;22.80;99.90
40589;DHT22;26297;49.450;6.640;2023-06-22T15:00:04;22.80;99.90
40589;DHT22;26297;49.450;6.640;2023-06-22T15:03:16;22.80;99.90
40589;DHT22;26297;49.450;6.640;2023-06-22T15:06:58;22.80;99.90
40589;DHT22;26297;49.450;6.640;2023-06-22T15:10:10;22.80;99.90
40589;DHT22;26297;49.450;6.640;2023-06-22T15:13:50;22.80;99.90
40589;DHT22;26297;49.450;6.640;2023-06-22T15:17:19;22.90;99.90
40589;DHT22;26297;49.450;6.640;2023-06-22T15:20:35;22.90;99.90
40589;DHT22;26297;49.450;6.640;2023-06-22T15:24:04;22.90;99.90
40589;DHT22;26297;49.450;6.640;2023-06-22T15:31:02;22.90;99.90
40589;DHT22;26297;49.450;6.640;2023-06-22T15:34:15;22.90;99.90
40589;DHT22;26297;49.450;6.640;2023-06-22T15:37:18;22.90;99.90
40589;DHT22;26297;49.450;6.640;2023-06-22T15:40:35;22.90;99.90
40589;DHT22;26297;49.450;6.640;2023-06-22T15:43:45;22.90;99.90
40589;DHT22;26297;49.450;6.640;2023-06-22T15:47:02;23.00;99.90
40589;DHT22;26297;49.450;6.640;2023-06-22T15:50:14;23.00;99.90
40589;DHT22;26297;49.450;6.640;2023-06-22T15:53:30;23.00;99.90
40589;DHT22;26297;49.450;6.640;2023-06-22T15:56:38;23.00;99.90
40589;DHT22;26297;49.450;6.640;2023-06-22T15:59:57;23.00;99.90
40589;DHT22;26297;49.450;6.640;2023-06-22T16:03:34;23.00;99.90
40589;DHT22;26297;49.450;6.640;2023-06-22T16:07:05;22.90;99.90
40589;DHT22;26297;49.450;6.640;2023-06-22T16:10:28;22.90;99.90
40589;DHT22;26297;49.450;6.640;2023-06-22T16:13:52;22.90;99.90
40589;DHT22;26297;49.450;6.640;2023-06-22T16:17:13;22.90;99.90
40589;DHT22;26297;49.450;6.640;2023-06-22T16:20:33;23.00;99.90
40589;DHT22;26297;49.450;6.640;2023-06-22T16:24:11;22.90;99.90
40589;DHT22;26297;49.450;6.640;2023-06-22T16:27:28;22.90;99.90
40589;DHT22;26297;49.450;6.640;2023-06-22T16:30:39;23.00;99.90
40589;DHT22;26297;49.450;6.640;2023-06-22T16:33:51;23.00;99.90
40589;DHT22;26297;49.450;6.640;2023-06-22T16:36:54;23.00;99.90
40589;DHT22;26297;49.450;6.640;2023-06-22T16:40:17;22.90;99.90
40589;DHT22;26297;49.450;6.640;2023-06-22T16:43:26;22.90;99.90
40589;DHT22;26297;49.450;6.640;2023-06-22T16:47:19;22.90;99.90
40589;DHT22;26297;49.450;6.640;2023-06-22T16:51:14;22.90;99.90
40589;DHT22;26297;49.450;6.640;2023-06-22T17:02:03;22.80;99.90
40589;DHT22;26297;49.450;6.640;2023-06-22T17:05:21;22.80;99.90
40589;DHT22;26297;49.450;6.640;2023-06-22T17:09:06;22.80;99.90
40589;DHT22;26297;49.450;6.640;2023-06-22T17:16:37;22.80;99.90
40589;DHT22;26297;49.450;6.640;2023-06-22T17:20:07;22.80;99.90
40589;DHT22;26297;49.450;6.640;2023-06-22T17:23:28;22.80;99.90
40589;DHT22;26297;49.450;6.640;2023-06-22T17:27:10;22.70;99.90
40589;DHT22;26297;49.450;6.640;2023-06-22T17:51:23;22.70;99.90
40589;DHT22;26297;49.450;6.640;2023-06-22T17:54:31;22.70;99.90
40589;DHT22;26297;49.450;6.640;2023-06-22T17:57:40;22.70;99.90
40589;DHT22;26297;49.450;6.640;2023-06-22T18:01:15;22.70;99.90
40589;DHT22;26297;49.450;6.640;2023-06-22T18:04:21;22.60;99.90
40589;DHT22;26297;49.450;6.640;2023-06-22T18:11:54;22.60;99.90
40589;DHT22;26297;49.450;6.640;2023-06-22T18:15:19;22.60;99.90
40589;DHT22;26297;49.450;6.640;2023-06-22T18:23:06;22.60;99.90
40589;DHT22;26297;49.450;6.640;2023-06-22T18:26:25;22.60;99.90
40589;DHT22;26297;49.450;6.640;2023-06-22T18:29:47;22.60;99.90
40589;DHT22;26297;49.450;6.640;2023-06-22T18:33:10;22.60;99.90
40589;DHT22;26297;49.450;6.640;2023-06-22T18:40:17;22.60;99.90
40589;DHT22;26297;49.450;6.640;2023-06-22T18:43:44;22.60;99.90
40589;DHT22;26297;49.450;6.640;2023-06-22T18:47:25;22.60;99.90
40589;DHT22;26297;49.450;6.640;2023-06-22T19:00:44;22.60;99.90
40589;DHT22;26297;49.450;6.640;2023-06-22T19:03:56;22.60;99.90
40589;DHT22;26297;49.450;6.640;2023-06-22T19:07:09;22.60;99.90
40589;DHT22;26297;49.450;6.640;2023-06-22T19:10:25;22.60;99.90
40589;DHT22;26297;49.450;6.640;2023-06-22T19:14:09;22.50;99.90
40589;DHT22;26297;49.450;6.640;2023-06-22T19:17:24;22.50;99.90
40589;DHT22;26297;49.450;6.640;2023-06-22T19:24:05;22.50;99.90
40589;DHT22;26297;49.450;6.640;2023-06-22T19:27:30;22.50;99.90
40589;DHT22;26297;49.450;6.640;2023-06-22T19:30:57;22.50;99.90
40589;DHT22;26297;49.450;6.640;2023-06-22T19:34:04;22.50;99.90
40589;DHT22;26297;49.450;6.640;2023-06-22T19:37:22;22.50;99.90
40589;DHT22;26297;49.450;6.640;2023-06-22T19:40:33;22.50;99.90
40589;DHT22;26297;49.450;6.640;2023-06-22T19:43:48;22.50;99.90
40589;DHT22;26297;49.450;6.640;2023-06-22T19:47:08;22.50;99.90
40589;DHT22;26297;49.450;6.640;2023-06-22T19:54:30;22.50;99.90
40589;DHT22;26297;49.450;6.640;2023-06-22T19:57:44;22.50;99.90
40589;DHT22;26297;49.450;6.640;2023-06-22T20:00:59;22.50;99.90
40589;DHT22;26297;49.450;6.640;2023-06-22T20:04:29;22.50;99.90
40589;DHT22;26297;49.450;6.640;2023-06-22T20:07:42;22.50;99.90
40589;DHT22;26297;49.450;6.640;2023-06-22T20:10:49;22.50;99.90
40589;DHT22;26297;49.450;6.640;2023-06-22T20:14:02;22.50;99.90
40589;DHT22;26297;49.450;6.640;2023-06-22T20:17:19;22.50;99.90
40589;DHT22;26297;49.450;6.640;2023-06-22T20:20:33;22.50;99.90
40589;DHT22;26297;49.450;6.640;2023-06-22T20:23:45;22.50;99.90
40589;DHT22;26297;49.450;6.640;2023-06-22T20:26:59;22.50;99.90
40589;DHT22;26297;49.450;6.640;2023-06-22T20:30:15;22.50;99.90
40589;DHT22;26297;49.450;6.640;2023-06-22T20:33:36;22.50;99.90
40589;DHT22;26297;49.450;6.640;2023-06-22T20:36:45;22.50;99.90
40589;DHT22;26297;49.450;6.640;2023-06-22T20:39:51;22.50;99.90
40589;DHT22;26297;49.450;6.640;2023-06-22T20:43:06;22.40;99.90
40589;DHT22;26297;49.450;6.640;2023-06-22T20:46:26;22.40;99.90
40589;DHT22;26297;49.450;6.640;2023-06-22T20:50:00;22.40;99.90
40589;DHT22;26297;49.450;6.640;2023-06-22T20:53:12;22.40;99.90
40589;DHT22;26297;49.450;6.640;2023-06-22T20:56:30;22.30;99.90
40589;DHT22;26297;49.450;6.640;2023-06-22T21:00:00;22.40;99.90
40589;DHT22;26297;49.450;6.640;2023-06-22T21:03:12;22.30;99.90
40589;DHT22;26297;49.450;6.640;2023-06-22T22:11:51;22.30;99.90
40589;DHT22;26297;49.450;6.640;2023-06-22T22:15:23;22.30;99.90
40589;DHT22;26297;49.450;6.640;2023-06-22T22:18:30;22.30;99.90
40589;DHT22;26297;49.450;6.640;2023-06-22T22:22:03;22.30;99.90
40589;DHT22;26297;49.450;6.640;2023-06-22T22:25:23;22.30;99.90
40589;DHT22;26297;49.450;6.640;2023-06-22T22:28:32;22.30;99.90
40589;DHT22;26297;49.450;6.640;2023-06-22T22:31:48;22.30;99.90
40589;DHT22;26297;49.450;6.640;2023-06-22T22:35:15;22.30;99.90
40589;DHT22;26297;49.450;6.640;2023-06-22T22:38:30;22.30;99.90
40589;DHT22;26297;49.450;6.640;2023-06-22T22:41:41;22.30;99.90
40589;DHT22;26297;49.450;6.640;2023-06-22T22:44:50;22.30;99.90
40589;DHT22;26297;49.450;6.640;2023-06-22T22:48:39;22.30;99.90
40589;DHT22;26297;49.450;6.640;2023-06-22T22:51:47;22.30;99.90
40589;DHT22;26297;49.450;6.640;2023-06-22T22:55:18;22.30;99.90
40589;DHT22;26297;49.450;6.640;2023-06-22T22:58:27;22.30;99.90
40589;DHT22;26297;49.450;6.640;2023-06-22T23:01:34;22.30;99.90
40589;DHT22;26297;49.450;6.640;2023-06-22T23:12:20;22.30;99.90
40589;DHT22;26297;49.450;6.640;2023-06-22T23:15:30;22.30;99.90
40589;DHT22;26297;49.450;6.640;2023-06-22T23:18:37;22.30;99.90
40589;DHT22;26297;49.450;6.640;2023-06-22T23:25:26;22.30;99.90
40589;DHT22;26297;49.450;6.640;2023-06-22T23:28:31;22.30;99.90
40589;DHT22;26297;49.450;6.640;2023-06-22T23:31:46;22.30;99.90
40589;DHT22;26297;49.450;6.640;2023-06-22T23:35:03;22.30;99.90
40589;DHT22;26297;49.450;6.640;2023-06-22T23:38:29;22.30;99.90
40589;DHT22;26297;49.450;6.640;2023-06-22T23:41:37;22.30;99.90
40589;DHT22;26297;49.450;6.640;2023-06-22T23:44:44;22.30;99.90
40589;DHT22;26297;49.450;6.640;2023-06-22T23:47:51;22.30;99.90
40589;DHT22;26297;49.450;6.640;2023-06-22T23:51:11;22.30;99.90
40589;DHT22;26297;49.450;6.640;2023-06-22T23:54:20;22.30;99.90
40589;DHT22;26297;49.450;6.640;2023-06-22T23:57:38;22.30;99.90
